Time;durP1;ratioP1;P1;durP2;ratioP2;P2;SDS_P1;SDS_P2;PMS_P1;PMS_P2;Temp;Humidity;BMP_temperature;BMP_pressure;BME280_temperature;BME280_humidity;BME280_pressure;Samples;Min_cycle;Max_cycle;Signal;HPM_P1;HPM_P2
2021/12/07 00:00:21;;;;;;;9.70;7.95;;;;;;;2.15;86.34;100302.69;5034071;28;20033;-69
2021/12/07 00:02:47;;;;;;;9.85;8.40;;;;;;;2.09;86.72;100306.09;5032286;28;20032;-69
2021/12/07 00:05:12;;;;;;;10.68;8.60;;;;;;;2.08;87.08;100304.44;5034425;28;20381;-69
2021/12/07 00:07:39;;;;;;;14.07;8.75;;;;;;;2.08;86.38;100313.31;5034050;28;20030;-69
2021/12/07 00:10:06;;;;;;;12.43;8.82;;;;;;;2.03;86.74;100313.00;5034334;28;20468;-69
2021/12/07 00:12:36;;;;;;;11.32;9.00;;;;;;;2.00;87.40;100309.88;5016451;28;20022;-69
2021/12/07 00:15:03;;;;;;;11.77;9.27;;;;;;;2.02;87.37;100319.34;5033989;28;20041;-69
2021/12/07 00:17:30;;;;;;;15.68;9.77;;;;;;;2.02;87.95;100308.66;5033898;28;20026;-69
2021/12/07 00:19:55;;;;;;;14.52;10.10;;;;;;;2.00;88.24;100323.22;5034043;28;20155;-69
2021/12/07 00:22:21;;;;;;;13.98;10.48;;;;;;;2.00;88.09;100323.22;5033956;28;20037;-70
2021/12/07 00:24:46;;;;;;;15.23;10.75;;;;;;;2.02;87.98;100326.53;5033863;28;20026;-69
2021/12/07 00:27:11;;;;;;;15.45;11.38;;;;;;;2.09;87.86;100330.13;5033851;28;20037;-69
2021/12/07 00:29:39;;;;;;;15.80;11.60;;;;;;;2.06;88.06;100331.31;5033811;28;20033;-69
2021/12/07 00:35:00;;;;;;;20.27;11.75;;;;;;;2.11;88.67;100333.44;5033940;28;20045;-69
2021/12/07 00:37:28;;;;;;;18.05;12.05;;;;;;;2.04;88.92;100333.34;5033616;28;20439;-69
2021/12/07 00:39:54;;;;;;;19.50;11.98;;;;;;;2.11;89.68;100341.44;5033645;28;20396;-69
2021/12/07 00:42:20;;;;;;;16.88;12.75;;;;;;;2.15;89.72;100350.75;5033334;28;20029;-69
2021/12/07 00:44:45;;;;;;;18.17;12.73;;;;;;;2.17;90.05;100354.06;5033217;28;20054;-69
2021/12/07 00:47:11;;;;;;;16.88;13.10;;;;;;;2.20;90.10;100344.88;5033576;28;20820;-69
2021/12/07 00:49:36;;;;;;;19.83;13.45;;;;;;;2.26;89.80;100355.63;5033456;28;20060;-69
2021/12/07 00:52:02;;;;;;;19.05;14.20;;;;;;;2.33;90.04;100357.59;5033496;28;20037;-70
2021/12/07 00:54:28;;;;;;;18.33;13.60;;;;;;;2.38;90.35;100366.69;5033551;28;20116;-69
2021/12/07 00:56:53;;;;;;;27.60;14.10;;;;;;;2.42;90.32;100357.31;5025789;28;20492;-69
2021/12/07 00:59:19;;;;;;;21.98;13.10;;;;;;;2.47;90.94;100370.13;5032365;28;20479;-69
2021/12/07 01:01:44;;;;;;;20.45;12.75;;;;;;;2.61;90.96;100374.66;5031026;28;20484;-69
2021/12/07 01:04:09;;;;;;;23.75;12.68;;;;;;;2.63;90.82;100380.63;5033224;28;20431;-69
2021/12/07 01:06:48;;;;;;;22.50;13.20;;;;;;;2.66;91.06;100384.78;5033074;28;20037;-69
2021/12/07 01:25:53;;;;;;;23.20;12.48;;;;;;;2.95;91.62;100428.53;5032607;28;20057;-70
2021/12/07 01:28:33;;;;;;;25.75;12.43;;;;;;;2.98;91.64;100428.16;5032784;28;20524;-70
2021/12/07 01:52:31;;;;;;;23.65;9.63;;;;;;;3.15;91.68;100448.31;5032072;28;20038;-70
2021/12/07 02:00:16;;;;;;;20.50;7.72;;;;;;;3.25;92.11;100474.78;5032104;28;20049;-70
2021/12/07 02:02:42;;;;;;;24.48;8.30;;;;;;;3.31;91.42;100465.19;5029576;28;20029;-69
2021/12/07 02:05:10;;;;;;;21.25;7.57;;;;;;;3.29;91.56;100477.91;5032083;28;20036;-70
2021/12/07 02:07:35;;;;;;;20.50;7.45;;;;;;;3.32;91.48;100474.84;5031972;28;20120;-70
2021/12/07 02:10:07;;;;;;;18.23;7.05;;;;;;;3.32;91.29;100474.84;5032350;28;20485;-70
2021/12/07 02:12:42;;;;;;;;;;;;;;;3.45;91.33;100490.25;5032158;28;20025;-70
2021/12/07 02:15:10;;;;;;;21.10;6.15;;;;;;;3.37;91.53;100488.50;5025082;28;20356;-70
2021/12/07 02:17:35;;;;;;;17.27;6.25;;;;;;;3.41;91.23;100499.66;5031895;28;20065;-70
2021/12/07 02:20:00;;;;;;;22.08;6.13;;;;;;;3.36;91.41;100487.66;5014303;28;20392;-70
2021/12/07 02:22:26;;;;;;;21.45;6.22;;;;;;;3.42;91.62;100501.31;5031340;28;20029;-70
2021/12/07 02:24:52;;;;;;;23.35;5.47;;;;;;;3.44;91.01;100507.31;5031225;28;20142;-70
2021/12/07 02:27:18;;;;;;;23.85;6.00;;;;;;;3.42;90.78;100501.31;5032037;28;20116;-70
2021/12/07 02:29:43;;;;;;;20.10;4.70;;;;;;;3.43;90.85;100509.16;5031534;28;20109;-70
2021/12/07 02:32:08;;;;;;;23.17;5.18;;;;;;;3.42;91.54;100512.03;5024329;28;20099;-70
2021/12/07 02:34:36;;;;;;;25.92;5.10;;;;;;;3.43;91.31;100517.19;5032417;28;20029;-70
2021/12/07 02:37:02;;;;;;;24.77;5.45;;;;;;;3.45;90.93;100519.69;5035944;28;20029;-70
2021/12/07 02:39:33;;;;;;;19.38;4.50;;;;;;;3.43;91.31;100525.22;5035725;28;20021;-70
2021/12/07 02:42:00;;;;;;;20.25;4.65;;;;;;;3.43;91.43;100525.22;5035896;28;20033;-70
2021/12/07 02:44:25;;;;;;;27.23;4.78;;;;;;;3.43;91.06;100530.56;5035218;28;20053;-70
2021/12/07 02:46:50;;;;;;;18.40;4.07;;;;;;;3.46;90.96;100532.03;5035570;28;20034;-70
2021/12/07 02:49:15;;;;;;;20.10;4.30;;;;;;;3.46;90.99;100534.72;5036082;28;20388;-70
2021/12/07 02:51:41;;;;;;;18.95;4.38;;;;;;;3.42;91.25;100538.78;5035259;28;20036;-70
2021/12/07 02:54:06;;;;;;;18.55;3.83;;;;;;;3.45;90.62;100547.25;5035291;28;20109;-70
2021/12/07 02:56:32;;;;;;;24.10;4.05;;;;;;;3.44;90.67;100545.59;5035486;28;20091;-70
2021/12/07 02:59:01;;;;;;;17.42;4.03;;;;;;;3.44;90.70;100553.63;5035564;28;20049;-70
2021/12/07 03:01:32;;;;;;;18.88;4.25;;;;;;;3.36;91.21;100551.84;5032951;28;20048;-70
2021/12/07 03:04:07;;;;;;;23.92;4.22;;;;;;;3.36;91.39;100556.38;5031811;28;20060;-70
2021/12/07 03:07:03;;;;;;;18.02;3.58;;;;;;;3.36;91.18;100559.88;5034979;28;20112;-70
2021/12/07 03:10:12;;;;;;;18.20;3.85;;;;;;;3.35;91.05;100568.94;5030034;28;20036;-70
2021/12/07 03:26:13;;;;;;;21.70;4.47;;;;;;;3.25;90.74;100580.94;5034854;28;20049;-70
2021/12/07 03:28:42;;;;;;;14.23;3.42;;;;;;;3.26;90.98;100591.44;5035008;28;20033;-70
2021/12/07 03:31:08;;;;;;;23.05;3.90;;;;;;;3.25;90.77;100581.75;5035116;28;20040;-70
2021/12/07 03:33:34;;;;;;;16.60;3.47;;;;;;;3.24;90.63;100595.31;5034542;28;20033;-70
2021/12/07 03:36:00;;;;;;;16.05;3.90;;;;;;;3.25;90.78;100596.97;5035106;28;20468;-70
2021/12/07 03:38:26;;;;;;;20.27;3.75;;;;;;;3.22;90.87;100598.16;5034505;28;20022;-70
2021/12/07 03:40:51;;;;;;;16.50;3.70;;;;;;;3.24;90.66;100606.81;5034730;28;20030;-70
2021/12/07 03:43:17;;;;;;;19.50;3.63;;;;;;;3.22;90.96;100611.53;5035163;28;20037;-70
2021/12/07 03:45:43;;;;;;;20.05;4.07;;;;;;;3.29;90.41;100615.16;5033224;28;20073;-70
2021/12/07 03:48:10;;;;;;;18.02;3.55;;;;;;;3.22;90.56;100622.22;5033665;28;20037;-70
2021/12/07 03:50:36;;;;;;;29.35;3.70;;;;;;;3.18;90.75;100624.41;5032990;28;20030;-70
2021/12/07 03:53:02;;;;;;;19.83;4.07;;;;;;;3.16;90.62;100620.28;5033396;28;20025;-70
2021/12/07 03:55:27;;;;;;;25.42;3.65;;;;;;;3.19;90.55;100620.75;5033445;28;20117;-70
2021/12/07 03:57:53;;;;;;;18.33;3.75;;;;;;;3.17;90.49;100624.59;5015212;28;20037;-70
2021/12/07 04:00:21;;;;;;;18.73;3.67;;;;;;;3.16;91.11;100625.63;5033510;28;20042;-70
2021/12/07 04:02:49;;;;;;;26.20;4.55;;;;;;;3.17;90.37;100629.94;5030698;28;20064;-70
2021/12/07 04:05:17;;;;;;;21.58;3.92;;;;;;;3.15;90.76;100623.97;5033356;28;20030;-70
2021/12/07 04:07:43;;;;;;;21.00;3.83;;;;;;;3.14;90.82;100625.81;5032765;28;20388;-70
2021/12/07 04:10:12;;;;;;;13.57;3.90;;;;;;;3.13;90.58;100624.16;5033059;28;20029;-70
2021/12/07 04:12:37;;;;;;;23.05;3.60;;;;;;;3.12;90.56;100624.31;5032757;28;20029;-70
2021/12/07 04:15:05;;;;;;;13.35;3.10;;;;;;;3.13;90.58;100631.34;5033041;28;20389;-70
2021/12/07 04:17:30;;;;;;;19.75;3.70;;;;;;;3.14;90.75;100635.66;5032621;28;20030;-70
2021/12/07 04:19:56;;;;;;;20.15;3.70;;;;;;;3.12;90.73;100632.34;5032642;28;20040;-70
2021/12/07 04:22:21;;;;;;;17.00;3.67;;;;;;;3.08;90.87;100637.25;5015371;28;20116;-70
2021/12/07 04:24:46;;;;;;;26.63;4.40;;;;;;;3.08;90.85;100645.25;5032403;28;20037;-70
2021/12/07 04:27:12;;;;;;;19.48;4.45;;;;;;;3.05;90.75;100640.28;5032560;28;20051;-69
2021/12/07 04:29:37;;;;;;;19.85;3.58;;;;;;;3.09;90.69;100643.41;5032816;28;20040;-70
2021/12/07 04:32:03;;;;;;;13.52;3.92;;;;;;;3.08;90.59;100644.41;5032774;28;20037;-70
2021/12/07 04:34:28;;;;;;;18.52;3.10;;;;;;;3.07;90.53;100646.25;5032794;28;20036;-70
2021/12/07 04:36:53;;;;;;;19.63;3.40;;;;;;;3.08;90.45;100642.59;5032447;28;20033;-70
2021/12/07 04:39:19;;;;;;;19.45;3.88;;;;;;;3.08;90.67;100639.91;5032909;28;20071;-70
2021/12/07 04:41:46;;;;;;;16.67;3.38;;;;;;;3.10;90.52;100653.91;5032653;28;20037;-70
2021/12/07 04:44:12;;;;;;;19.23;3.50;;;;;;;3.15;90.56;100661.41;4997064;28;1015172;-70
2021/12/07 04:46:49;;;;;;;20.70;3.08;;;;;;;3.12;90.75;100667.09;5033499;28;20475;-70
2021/12/07 05:00:01;;;;;;;16.48;3.53;;;;;;;3.13;90.32;100663.44;5032971;28;20099;-69
2021/12/07 05:02:26;;;;;;;19.15;3.63;;;;;;;3.08;90.62;100641.72;5031124;28;20036;-69
2021/12/07 05:04:51;;;;;;;17.70;3.70;;;;;;;3.08;91.05;100671.13;5015488;28;20030;-70
2021/12/07 05:07:26;;;;;;;16.85;3.33;;;;;;;3.06;91.21;100679.34;5032822;28;20459;-70
2021/12/07 05:10:11;;;;;;;19.35;3.50;;;;;;;3.06;90.82;100676.66;5033078;28;20033;-70
2021/12/07 05:15:22;;;;;;;18.75;3.00;;;;;;;3.04;90.60;100683.22;5033089;28;20484;-70
2021/12/07 05:18:06;;;;;;;19.92;3.45;;;;;;;3.00;90.61;100685.41;5032907;28;20037;-70
2021/12/07 05:39:21;;;;;;;18.98;4.00;;;;;;;2.73;90.74;100722.34;5032122;28;20044;-70
2021/12/07 05:41:47;;;;;;;20.60;4.55;;;;;;;2.73;90.37;100726.84;5032563;28;20384;-70
2021/12/07 05:44:12;;;;;;;18.70;5.18;;;;;;;2.66;91.02;100738.25;5032205;28;20029;-70
2021/12/07 05:46:37;;;;;;;17.27;4.75;;;;;;;2.64;90.61;100750.97;5032209;28;20099;-70
2021/12/07 05:49:03;;;;;;;20.08;5.13;;;;;;;2.62;90.73;100752.13;5032579;28;20036;-70
2021/12/07 05:51:28;;;;;;;19.30;5.75;;;;;;;2.61;90.71;100745.97;5032062;28;20108;-70
2021/12/07 05:53:53;;;;;;;26.40;5.55;;;;;;;2.58;91.04;100757.00;5032029;28;20036;-70
2021/12/07 05:56:18;;;;;;;21.27;5.57;;;;;;;2.60;91.09;100755.00;5032458;28;20354;-70
2021/12/07 05:58:44;;;;;;;15.40;5.40;;;;;;;2.57;91.26;100765.19;5031975;28;20037;-70
2021/12/07 06:01:09;;;;;;;19.35;5.57;;;;;;;2.57;91.04;100760.69;5030110;28;20052;-70
2021/12/07 06:03:34;;;;;;;24.88;5.85;;;;;;;2.59;90.94;100776.53;5032102;28;20033;-70
2021/12/07 06:06:03;;;;;;;22.90;5.78;;;;;;;2.54;90.52;100763.69;5031898;28;20437;-70
2021/12/07 06:08:30;;;;;;;22.00;5.65;;;;;;;2.55;90.95;100768.06;5031858;28;20037;-70
2021/12/07 06:10:55;;;;;;;26.50;5.65;;;;;;;2.52;90.71;100768.41;5031637;28;20033;-70
2021/12/07 06:13:20;;;;;;;21.23;5.97;;;;;;;2.51;90.78;100761.38;5032037;28;20072;-70
2021/12/07 06:15:46;;;;;;;21.75;6.13;;;;;;;2.50;90.68;100770.38;5031824;28;20030;-70
2021/12/07 06:18:12;;;;;;;19.48;5.47;;;;;;;2.47;91.10;100762.72;5031858;28;20064;-70
2021/12/07 06:20:40;;;;;;;20.63;5.28;;;;;;;2.50;91.22;100758.88;5031781;28;20469;-70
2021/12/07 06:23:06;;;;;;;27.05;5.85;;;;;;;2.46;90.83;100763.72;5024228;28;20116;-70
2021/12/07 06:25:31;;;;;;;26.67;6.25;;;;;;;2.49;91.13;100766.03;5032160;28;20112;-70
2021/12/07 06:27:57;;;;;;;20.48;6.07;;;;;;;2.47;90.51;100768.06;5031764;28;20029;-70
2021/12/07 06:30:22;;;;;;;20.90;6.32;;;;;;;2.48;90.75;100777.75;5032070;28;20440;-70
2021/12/07 06:32:47;;;;;;;22.52;5.95;;;;;;;2.44;90.56;100779.94;5031745;28;20032;-70
2021/12/07 06:35:13;;;;;;;18.65;5.82;;;;;;;2.43;90.97;100775.59;5031390;28;20073;-70
2021/12/07 06:37:38;;;;;;;25.48;6.05;;;;;;;2.44;90.92;100781.78;5031972;28;20183;-70
2021/12/07 06:40:11;;;;;;;22.02;6.22;;;;;;;2.41;90.78;100776.78;5031702;28;20038;-70
2021/12/07 06:42:38;;;;;;;20.52;5.80;;;;;;;2.39;90.53;100779.63;5031990;28;20481;-70
2021/12/07 06:45:06;;;;;;;25.98;6.47;;;;;;;2.37;90.65;100780.78;5031381;28;20081;-70
2021/12/07 06:47:31;;;;;;;23.50;5.75;;;;;;;2.36;90.63;100787.16;5032019;28;20061;-70
2021/12/07 06:49:57;;;;;;;23.80;6.05;;;;;;;2.35;90.99;100772.94;5031194;28;20060;-69
2021/12/07 06:52:22;;;;;;;27.23;6.30;;;;;;;2.36;90.91;100773.81;5031657;28;20400;-70
2021/12/07 06:54:47;;;;;;;23.70;6.47;;;;;;;2.38;90.63;100785.13;5031948;28;20030;-70
2021/12/07 06:57:12;;;;;;;24.27;6.10;;;;;;;2.38;90.88;100777.94;5031394;28;20053;-70
2021/12/07 06:59:38;;;;;;;25.67;6.25;;;;;;;2.34;90.81;100786.47;5031977;28;20041;-72
2021/12/07 07:02:03;;;;;;;22.02;6.63;;;;;;;2.34;91.25;100786.47;5029412;28;20479;-71
2021/12/07 07:04:28;;;;;;;23.60;6.45;;;;;;;2.27;91.44;100787.16;5031575;28;20083;-71
2021/12/07 07:06:54;;;;;;;22.95;6.57;;;;;;;2.25;91.27;100789.19;5031828;28;20108;-70
2021/12/07 07:09:19;;;;;;;28.05;6.20;;;;;;;2.28;91.20;100790.66;5031184;28;20034;-71
2021/12/07 07:11:44;;;;;;;20.58;6.32;;;;;;;2.27;91.15;100792.50;5031541;28;20030;-71
2021/12/07 07:14:10;;;;;;;24.23;6.68;;;;;;;2.25;91.19;100794.53;5031854;28;20083;-70
2021/12/07 07:16:35;;;;;;;26.75;6.57;;;;;;;2.27;91.30;100797.03;5031813;28;20034;-71
2021/12/07 07:19:00;;;;;;;22.17;6.13;;;;;;;2.28;91.38;100794.19;5031276;28;20033;-71
2021/12/07 07:21:26;;;;;;;25.42;6.50;;;;;;;2.27;91.13;100797.84;5033366;28;20481;-70
2021/12/07 07:23:52;;;;;;;25.50;6.32;;;;;;;2.28;91.11;100794.19;5035048;28;20060;-74
2021/12/07 07:26:17;;;;;;;25.85;6.72;;;;;;;2.28;91.46;100794.19;5035298;28;20049;-70
2021/12/07 07:28:43;;;;;;;23.95;6.43;;;;;;;2.29;91.09;100801.19;5017381;28;20385;-71
2021/12/07 07:31:10;;;;;;;24.50;6.80;;;;;;;2.30;90.82;100802.84;5035300;28;20025;-71
2021/12/07 07:33:36;;;;;;;25.77;6.78;;;;;;;2.30;91.36;100818.88;5034727;28;20055;-71
2021/12/07 07:36:01;;;;;;;31.02;7.90;;;;;;;2.32;90.99;100821.38;5034680;28;20083;-71
2021/12/07 07:38:27;;;;;;;25.17;6.30;;;;;;;2.30;91.24;100812.72;5034761;28;20061;-71
2021/12/07 07:40:53;;;;;;;20.33;6.03;;;;;;;2.33;91.42;100815.03;5034829;28;20393;-71
2021/12/07 07:43:18;;;;;;;22.08;6.43;;;;;;;2.33;91.27;100809.69;5034941;28;20461;-71
2021/12/07 07:45:50;;;;;;;28.58;6.55;;;;;;;2.34;91.45;100813.19;5034192;28;20052;-71
2021/12/07 07:48:16;;;;;;;25.65;6.80;;;;;;;2.34;90.94;100814.03;5034513;28;20483;-71
2021/12/07 07:50:43;;;;;;;21.10;6.45;;;;;;;2.35;91.49;100807.66;5034586;28;20044;-71
2021/12/07 07:53:08;;;;;;;23.90;6.32;;;;;;;2.37;91.16;100802.16;5016671;28;20030;-71
2021/12/07 07:55:35;;;;;;;28.27;7.30;;;;;;;2.42;91.46;100799.81;5034509;28;20029;-71
2021/12/07 07:58:03;;;;;;;24.40;6.97;;;;;;;2.42;90.91;100800.66;5034374;28;20036;-71
2021/12/07 08:00:28;;;;;;;28.58;6.75;;;;;;;2.42;91.23;100799.81;5033100;28;20038;-71
2021/12/07 08:02:54;;;;;;;24.40;6.70;;;;;;;2.43;91.16;100783.63;5033101;28;20055;-71
2021/12/07 08:05:19;;;;;;;20.15;6.30;;;;;;;2.45;91.38;100794.13;5034594;28;20029;-71
2021/12/07 08:07:47;;;;;;;22.80;6.07;;;;;;;2.47;91.44;100786.75;5016606;28;20457;-71
2021/12/07 08:10:28;;;;;;;26.08;7.15;;;;;;;2.47;90.93;100800.13;5034510;28;20112;-70
2021/12/07 08:12:54;;;;;;;21.83;6.07;;;;;;;2.51;90.98;100808.59;5033787;28;20500;-71
2021/12/07 08:15:20;;;;;;;22.08;6.85;;;;;;;2.54;91.11;100803.78;5034238;28;20026;-70
2021/12/07 08:17:45;;;;;;;22.75;6.80;;;;;;;2.56;90.50;100815.09;5027605;28;20449;-71
2021/12/07 08:20:10;;;;;;;21.38;5.95;;;;;;;2.60;90.87;100820.97;5034042;28;20025;-71
2021/12/07 08:22:35;;;;;;;22.83;5.97;;;;;;;2.59;90.51;100819.28;5034207;28;20037;-70
2021/12/07 08:25:01;;;;;;;19.23;5.93;;;;;;;2.58;90.64;100826.47;5033714;28;20030;-71
2021/12/07 08:27:27;;;;;;;23.63;6.05;;;;;;;2.56;90.43;100833.81;5033997;28;20052;-71
2021/12/07 08:29:53;;;;;;;22.67;5.88;;;;;;;2.53;90.00;100834.16;5033340;28;20108;-70
2021/12/07 08:32:18;;;;;;;18.00;5.32;;;;;;;2.53;90.08;100834.16;5032209;28;20557;-70
2021/12/07 08:34:44;;;;;;;19.13;5.53;;;;;;;2.52;90.35;100837.84;5033975;28;20037;-71
2021/12/07 08:37:09;;;;;;;26.30;5.90;;;;;;;2.49;90.24;100835.50;5015536;28;20032;-72
2021/12/07 08:39:35;;;;;;;18.75;6.10;;;;;;;2.46;90.12;100830.50;5016104;28;20171;-73
2021/12/07 08:42:02;;;;;;;16.92;5.70;;;;;;;2.40;90.12;100832.03;5033375;28;20036;-74
2021/12/07 08:44:27;;;;;;;17.05;5.25;;;;;;;2.42;89.76;100838.03;5033650;28;20053;-71
2021/12/07 08:46:53;;;;;;;20.90;5.30;;;;;;;2.37;90.16;100834.19;5011172;28;20034;-72
2021/12/07 08:49:19;;;;;;;16.75;5.18;;;;;;;2.40;90.80;100829.38;5033666;28;20025;-74
2021/12/07 08:51:45;;;;;;;19.27;5.03;;;;;;;2.41;90.72;100822.19;5015186;28;20120;-75
2021/12/07 08:59:46;;;;;;;13.65;5.05;;;;;;;2.47;90.05;100818.81;5033203;28;20092;-71
2021/12/07 09:02:17;;;;;;;20.10;4.63;;;;;;;2.51;90.69;100813.94;5030613;28;20499;-71
2021/12/07 09:04:43;;;;;;;19.92;4.82;;;;;;;2.53;89.87;100806.63;5027724;28;20068;-72
2021/12/07 09:07:08;;;;;;;12.95;4.97;;;;;;;2.50;90.01;100797.09;5030479;28;20108;-72
2021/12/07 09:09:35;;;;;;;15.50;5.07;;;;;;;2.56;90.47;100796.41;5033347;28;20061;-71
2021/12/07 09:12:01;;;;;;;15.52;4.68;;;;;;;2.54;90.86;100792.25;5032989;28;20046;-73
2021/12/07 09:14:29;;;;;;;16.20;5.75;;;;;;;2.56;90.20;100793.75;5033072;28;20037;-73
2021/12/07 09:16:55;;;;;;;17.67;5.38;;;;;;;2.58;90.91;100799.75;5032798;28;20033;-72
2021/12/07 09:19:20;;;;;;;14.68;5.40;;;;;;;2.61;90.58;100796.75;5032325;28;20034;-73
2021/12/07 09:21:45;;;;;;;14.55;5.43;;;;;;;2.64;90.43;100799.06;5032127;28;20151;-73
2021/12/07 09:24:11;;;;;;;16.80;5.13;;;;;;;2.71;90.71;100806.38;5032149;28;20030;-73
2021/12/07 09:26:36;;;;;;;16.83;5.00;;;;;;;2.69;89.83;100805.69;5032873;28;20033;-73
2021/12/07 09:29:04;;;;;;;19.33;5.35;;;;;;;2.72;90.23;100802.69;5032633;28;20468;-73
2021/12/07 09:31:29;;;;;;;16.58;5.38;;;;;;;2.73;89.89;100801.69;5032229;28;20036;-73
2021/12/07 09:33:55;;;;;;;15.95;5.45;;;;;;;2.77;90.43;100805.69;5032258;28;20384;-73
2021/12/07 09:36:21;;;;;;;16.02;5.43;;;;;;;2.78;90.28;100799.34;5022205;28;20038;-73
2021/12/07 09:38:47;;;;;;;18.92;5.10;;;;;;;2.87;89.64;100803.63;5014747;28;20412;-73
2021/12/07 09:41:14;;;;;;;23.23;5.55;;;;;;;2.88;90.28;100799.91;5032248;28;20045;-72
2021/12/07 09:43:40;;;;;;;17.20;5.10;;;;;;;2.90;89.90;100803.28;5031668;28;20033;-73
2021/12/07 09:46:08;;;;;;;17.73;5.40;;;;;;;2.94;90.22;100795.72;5032300;28;20041;-73
2021/12/07 09:48:34;;;;;;;19.30;5.00;;;;;;;2.99;89.99;100801.38;5031801;28;20041;-72
2021/12/07 09:51:00;;;;;;;19.63;4.65;;;;;;;3.00;90.18;100798.53;5032119;28;20079;-74
2021/12/07 09:53:28;;;;;;;14.88;4.97;;;;;;;3.05;90.35;100800.69;5032129;28;20029;-76
2021/12/07 09:55:54;;;;;;;16.73;4.60;;;;;;;3.10;90.26;100802.81;5031971;28;20039;-76
2021/12/07 09:58:20;;;;;;;19.83;5.20;;;;;;;3.14;90.12;100796.94;5033237;28;20029;-73
2021/12/07 10:00:46;;;;;;;16.98;4.90;;;;;;;3.18;89.93;100808.09;5029961;28;20085;-72
2021/12/07 10:03:12;;;;;;;14.18;4.40;;;;;;;3.22;90.12;100793.38;5032013;28;20116;-72
2021/12/07 10:05:40;;;;;;;20.13;5.13;;;;;;;3.27;89.35;100793.66;5032146;28;20442;-73
2021/12/07 10:08:07;;;;;;;16.88;5.13;;;;;;;3.27;89.15;100788.31;5014766;28;20124;-74
2021/12/07 10:10:37;;;;;;;16.75;5.25;;;;;;;3.31;89.56;100799.50;5032230;28;20072;-72
2021/12/07 10:13:05;;;;;;;16.70;4.70;;;;;;;3.31;89.50;100794.97;5024686;28;20040;-72
2021/12/07 10:15:31;;;;;;;12.30;4.70;;;;;;;3.34;89.07;100775.06;5031947;28;20034;-73
2021/12/07 10:18:12;;;;;;;16.98;5.25;;;;;;;3.40;89.01;100771.69;5014005;28;20381;-73
2021/12/07 10:20:45;;;;;;;16.35;5.43;;;;;;;3.45;89.46;100768.47;5032010;28;20026;-74
2021/12/07 10:23:13;;;;;;;18.65;4.80;;;;;;;3.51;89.73;100775.75;5031445;28;20398;-73
2021/12/07 10:25:40;;;;;;;17.27;5.38;;;;;;;3.53;89.55;100771.06;5032116;28;20029;-73
2021/12/07 10:28:26;;;;;;;16.38;4.80;;;;;;;3.55;89.25;100769.03;5031718;28;20033;-74
2021/12/07 10:30:51;;;;;;;16.10;4.55;;;;;;;3.62;89.17;100767.28;5018415;28;20040;-73
2021/12/07 10:33:52;;;;;;;17.63;4.75;;;;;;;3.65;88.97;100774.94;5031426;28;20396;-74
2021/12/07 10:36:22;;;;;;;18.98;4.93;;;;;;;3.67;88.13;100766.78;5019645;28;20041;-71
2021/12/07 10:38:53;;;;;;;13.75;4.22;;;;;;;3.72;88.69;100759.03;5031010;28;20037;-73
2021/12/07 10:41:22;;;;;;;19.83;4.78;;;;;;;3.71;88.38;100750.16;5030585;28;20044;-73
2021/12/07 10:43:49;;;;;;;18.40;4.68;;;;;;;3.77;87.96;100739.72;5031909;28;20034;-73
2021/12/07 10:46:24;;;;;;;18.85;4.78;;;;;;;3.81;87.74;100741.03;5031579;28;20135;-72
2021/12/07 10:48:50;;;;;;;16.40;4.60;;;;;;;3.85;87.81;100732.44;5031933;28;20033;-72
2021/12/07 10:51:15;;;;;;;20.92;5.55;;;;;;;3.88;88.54;100731.22;5031493;28;20044;-71
2021/12/07 10:53:52;;;;;;;16.73;5.13;;;;;;;3.94;87.91;100725.16;5030475;28;20484;-72
2021/12/07 10:56:31;;;;;;;19.27;4.90;;;;;;;3.96;87.79;100727.66;5014687;28;20029;-71
2021/12/07 10:59:01;;;;;;;18.80;5.03;;;;;;;4.01;87.76;100715.34;5032217;28;20099;-72
2021/12/07 11:01:33;;;;;;;20.20;4.93;;;;;;;4.07;87.35;100709.25;5032750;28;20037;-72
2021/12/07 11:04:23;;;;;;;19.70;5.30;;;;;;;4.14;87.02;100708.53;5035237;28;20040;-72
2021/12/07 11:07:18;;;;;;;20.73;5.20;;;;;;;4.17;87.90;100692.94;5035638;28;20094;-71
2021/12/07 11:10:05;;;;;;;19.90;5.55;;;;;;;4.20;87.82;100681.00;5035444;28;20056;-72
2021/12/07 11:12:42;;;;;;;20.13;5.63;;;;;;;4.22;87.61;100678.97;5035282;28;20480;-72
2021/12/07 11:15:14;;;;;;;20.00;5.03;;;;;;;4.26;87.35;100674.91;5035486;28;20041;-72
2021/12/07 11:17:40;;;;;;;19.95;4.95;;;;;;;4.27;86.04;100671.19;5035338;28;20025;-72
2021/12/07 11:20:07;;;;;;;16.67;4.88;;;;;;;4.36;86.21;100672.75;5034865;28;20477;-71
2021/12/07 11:22:36;;;;;;;18.67;5.10;;;;;;;4.54;85.76;100671.50;5034894;28;20041;-72
2021/12/07 11:25:04;;;;;;;26.33;5.20;;;;;;;4.56;84.48;100664.09;5034850;28;20065;-71
2021/12/07 11:30:16;;;;;;;17.42;5.90;;;;;;;4.53;84.88;100662.63;5034547;28;20048;-72
2021/12/07 11:32:55;;;;;;;19.35;5.82;;;;;;;4.48;84.64;100661.53;5034791;28;20041;-74
2021/12/07 11:35:28;;;;;;;18.75;6.55;;;;;;;4.48;85.16;100662.38;5030467;28;20033;-72
2021/12/07 11:37:55;;;;;;;19.98;6.75;;;;;;;4.49;85.28;100660.53;5022235;28;20357;-72
2021/12/07 11:40:28;;;;;;;18.83;6.32;;;;;;;4.47;84.07;100663.41;5028844;28;20496;-72
2021/12/07 11:42:54;;;;;;;24.58;6.70;;;;;;;4.44;83.95;100653.06;5027668;28;20515;-72
2021/12/07 11:45:25;;;;;;;23.33;6.70;;;;;;;4.44;83.81;100655.75;5033246;28;20041;-72
2021/12/07 11:47:57;;;;;;;23.55;6.22;;;;;;;4.47;84.87;100655.38;5033153;28;20033;-72
2021/12/07 11:50:30;;;;;;;;;;;;;;;4.58;85.00;100651.34;5034494;28;20445;-70
2021/12/07 11:53:04;;;;;;;20.63;5.75;;;;;;;4.54;84.18;100650.06;5033911;28;19956;-71
2021/12/07 11:55:31;;;;;;;20.88;5.47;;;;;;;4.54;83.16;100644.69;5034338;28;20465;-70
2021/12/07 11:57:57;;;;;;;16.23;5.30;;;;;;;4.55;82.90;100643.69;5034120;28;20427;-71
2021/12/07 12:00:28;;;;;;;19.73;5.57;;;;;;;4.55;83.42;100627.63;5031181;28;20030;-71
2021/12/07 12:02:54;;;;;;;17.67;5.20;;;;;;;4.52;83.22;100622.63;5031948;28;20049;-71
2021/12/07 12:05:20;;;;;;;22.30;4.55;;;;;;;4.55;83.00;100620.41;5034345;28;20578;-71
2021/12/07 12:07:47;;;;;;;16.00;4.65;;;;;;;4.60;83.35;100627.84;5027658;28;20041;-71
2021/12/07 12:10:14;;;;;;;17.55;5.10;;;;;;;4.61;83.75;100616.13;5029582;28;20029;-71
2021/12/07 12:12:58;;;;;;;15.35;4.22;;;;;;;4.68;83.82;100608.97;5026530;28;20044;-71
2021/12/07 12:15:45;;;;;;;17.58;4.97;;;;;;;4.73;84.40;100613.78;5030772;28;20087;-71
2021/12/07 12:18:35;;;;;;;17.65;5.20;;;;;;;4.77;84.44;100604.28;5033859;28;20056;-71
2021/12/07 12:21:11;;;;;;;19.20;4.72;;;;;;;4.78;83.62;100601.41;5033636;28;20033;-71
2021/12/07 12:24:17;;;;;;;14.30;4.22;;;;;;;4.86;83.45;100594.28;5034038;28;20033;-71
2021/12/07 12:26:45;;;;;;;20.27;4.25;;;;;;;4.87;83.45;100580.66;4980335;28;20045;-72
2021/12/07 12:29:20;;;;;;;14.90;4.00;;;;;;;4.91;83.18;100587.31;5033678;28;20033;-72
2021/12/07 12:31:49;;;;;;;13.82;4.03;;;;;;;4.96;81.57;100578.69;5033776;28;20039;-72
2021/12/07 12:34:48;;;;;;;16.13;4.13;;;;;;;4.99;82.76;100567.56;5033475;28;20033;-72
2021/12/07 12:37:22;;;;;;;18.70;4.10;;;;;;;5.01;82.34;100557.47;5033496;28;20091;-73
2021/12/07 12:40:08;;;;;;;14.93;3.90;;;;;;;5.05;82.58;100558.72;5034177;28;20033;-75
2021/12/07 12:42:43;;;;;;;16.80;3.17;;;;;;;5.08;81.57;100562.88;5029536;28;20038;-72
2021/12/07 12:45:26;;;;;;;16.35;3.40;;;;;;;5.13;81.46;100555.06;5032862;28;20048;-72
2021/12/07 12:47:59;;;;;;;18.73;3.53;;;;;;;5.11;81.28;100541.84;5033313;28;20480;-72
2021/12/07 12:50:34;;;;;;;15.10;3.20;;;;;;;5.13;81.49;100526.41;5033157;28;20041;-71
2021/12/07 12:53:03;;;;;;;14.68;3.78;;;;;;;5.18;81.62;100520.47;5033235;28;20033;-72
2021/12/07 12:55:34;;;;;;;14.80;3.17;;;;;;;5.14;81.60;100511.97;5030897;28;20033;-72
2021/12/07 12:58:01;;;;;;;12.80;3.45;;;;;;;5.18;81.29;100492.78;5031119;28;20029;-72
2021/12/07 13:00:58;;;;;;;10.55;3.30;;;;;;;5.24;81.80;100489.31;5029360;28;20029;-72
2021/12/07 13:03:24;;;;;;;10.98;3.20;;;;;;;5.24;81.00;100483.94;5031857;28;20041;-72
2021/12/07 13:06:00;;;;;;;15.95;3.42;;;;;;;5.26;80.74;100477.34;5035771;28;20091;-71
2021/12/07 13:08:26;;;;;;;14.35;3.00;;;;;;;5.25;81.52;100454.22;5032553;28;20033;-72
2021/12/07 13:10:59;;;;;;;10.95;2.97;;;;;;;5.32;82.18;100448.91;5032445;28;20040;-72